createdAt,value
2022-12-15T00:02:19.425Z,39.50
2022-12-15T00:05:05.763Z,31.42
2022-12-15T00:07:51.657Z,29.00
2022-12-15T00:10:37.725Z,30.30
2022-12-15T00:13:30.043Z,28.10
2022-12-15T00:16:15.997Z,31.45
2022-12-15T00:19:01.348Z,28.60
2022-12-15T00:21:47.502Z,25.77
2022-12-15T00:24:33.177Z,26.85
2022-12-15T00:27:18.717Z,26.65
2022-12-15T00:30:04.266Z,21.13
2022-12-15T00:32:49.453Z,27.13
2022-12-15T00:35:34.643Z,29.92
2022-12-15T00:38:32.355Z,26.08
2022-12-15T00:41:00.299Z,26.15
2022-12-15T00:43:32.274Z,27.02
2022-12-15T00:46:18.907Z,33.10
2022-12-15T00:48:46.580Z,28.38
2022-12-15T00:51:14.369Z,24.73
2022-12-15T00:54:00.563Z,30.30
2022-12-15T00:56:46.166Z,23.65
2022-12-15T00:59:32.228Z,21.17
2022-12-15T01:02:17.735Z,23.52
2022-12-15T01:05:03.206Z,24.13
2022-12-15T01:07:50.021Z,28.88
2022-12-15T01:10:36.229Z,23.50
2022-12-15T01:13:23.027Z,30.58
2022-12-15T01:16:08.687Z,30.35
2022-12-15T01:18:54.037Z,24.52
2022-12-15T01:21:24.583Z,30.13
2022-12-15T01:23:52.416Z,26.30
2022-12-15T01:26:19.300Z,32.88
2022-12-15T01:28:46.088Z,21.80
2022-12-15T01:31:13.414Z,26.38
2022-12-15T01:33:42.729Z,28.45
2022-12-15T01:36:10.582Z,25.60
2022-12-15T01:38:37.828Z,21.02
2022-12-15T01:41:10.944Z,27.08
2022-12-15T01:43:39.857Z,28.50
2022-12-15T01:46:15.190Z,25.48
2022-12-15T01:49:08.152Z,23.98
2022-12-15T01:51:42.701Z,22.00
2022-12-15T01:54:30.977Z,23.88
2022-12-15T01:57:04.756Z,20.20
2022-12-15T01:59:36.003Z,24.90
2022-12-15T02:02:03.433Z,24.65
2022-12-15T02:04:31.720Z,24.35
2022-12-15T02:06:58.505Z,25.15
2022-12-15T02:09:26.836Z,26.13
2022-12-15T02:12:08.896Z,24.80
2022-12-15T02:14:47.225Z,23.73
2022-12-15T02:17:25.651Z,22.90
2022-12-15T02:20:35.260Z,25.05
2022-12-15T02:23:20.653Z,22.27
2022-12-15T02:26:08.489Z,28.52
2022-12-15T02:28:44.194Z,24.80
2022-12-15T02:31:51.610Z,27.58
2022-12-15T02:34:23.541Z,21.98
2022-12-15T02:36:59.501Z,21.00
2022-12-15T02:39:26.668Z,21.70
2022-12-15T02:41:53.594Z,23.52
2022-12-15T02:44:23.096Z,24.77
2022-12-15T02:47:25.609Z,25.55
2022-12-15T02:50:10.684Z,22.35
2022-12-15T02:52:52.669Z,30.27
2022-12-15T02:55:50.382Z,22.35
2022-12-15T02:58:26.172Z,25.98
2022-12-15T03:00:59.160Z,29.08
2022-12-15T03:03:29.524Z,24.38
2022-12-15T03:05:57.788Z,30.73
2022-12-15T03:08:24.925Z,24.38
2022-12-15T03:10:53.328Z,22.42
2022-12-15T03:13:20.862Z,23.38
2022-12-15T03:15:47.701Z,29.30
2022-12-15T03:18:14.513Z,20.23
2022-12-15T03:20:41.469Z,25.13
2022-12-15T03:23:08.302Z,25.42
2022-12-15T03:25:35.181Z,27.77
2022-12-15T03:28:01.986Z,27.45
2022-12-15T03:30:28.765Z,26.67
2022-12-15T03:32:55.578Z,29.08
2022-12-15T03:35:22.457Z,20.92
2022-12-15T03:37:49.765Z,25.10
2022-12-15T03:40:16.871Z,23.17
2022-12-15T03:42:49.574Z,25.40
2022-12-15T03:45:21.699Z,25.80
2022-12-15T03:47:49.221Z,23.08
2022-12-15T03:50:22.005Z,27.25
2022-12-15T03:52:57.962Z,27.70
2022-12-15T03:55:25.926Z,23.05
2022-12-15T03:57:53.112Z,31.50
2022-12-15T04:00:21.366Z,24.40
2022-12-15T04:02:50.223Z,25.67
2022-12-15T04:05:25.743Z,20.95
2022-12-15T04:07:53.947Z,22.95
2022-12-15T04:10:21.146Z,28.40
2022-12-15T04:12:47.979Z,26.38
2022-12-15T04:15:15.248Z,23.83
2022-12-15T04:17:42.954Z,23.85
2022-12-15T04:20:10.351Z,24.00
2022-12-15T04:22:39.021Z,24.63
2022-12-15T04:25:27.445Z,28.55
2022-12-15T04:28:13.237Z,26.85
2022-12-15T04:31:02.815Z,21.85
2022-12-15T04:33:48.933Z,24.67
2022-12-15T04:36:35.285Z,31.13
2022-12-15T04:39:23.587Z,24.35
2022-12-15T04:42:10.179Z,25.70
2022-12-15T04:44:55.801Z,24.30
2022-12-15T04:47:41.453Z,23.48
2022-12-15T04:50:27.167Z,28.85
2022-12-15T04:53:12.450Z,22.30
2022-12-15T04:55:57.837Z,33.10
2022-12-15T04:58:43.279Z,29.08
2022-12-15T05:01:28.722Z,25.38
2022-12-15T05:04:14.532Z,25.63
2022-12-15T05:07:00.025Z,30.08
2022-12-15T05:09:45.451Z,28.05
2022-12-15T05:12:30.493Z,23.75
2022-12-15T05:15:15.778Z,28.15
2022-12-15T05:18:01.150Z,26.90
2022-12-15T05:20:46.592Z,29.60
2022-12-15T05:23:35.295Z,25.13
2022-12-15T05:26:20.921Z,24.58
2022-12-15T05:29:06.194Z,36.00
2022-12-15T05:31:51.606Z,31.13
2022-12-15T05:34:21.292Z,30.98
2022-12-15T05:36:48.393Z,26.75
2022-12-15T05:39:15.245Z,29.38
2022-12-15T05:41:42.277Z,36.97
2022-12-15T05:44:09.712Z,43.30
2022-12-15T05:46:36.750Z,28.83
2022-12-15T05:49:05.747Z,28.00
2022-12-15T05:51:33.035Z,31.05
2022-12-15T05:53:59.977Z,25.25
2022-12-15T05:56:28.480Z,27.25
2022-12-15T05:58:57.379Z,36.42
2022-12-15T06:01:25.822Z,33.85
2022-12-15T06:03:52.751Z,30.83
2022-12-15T06:06:20.447Z,34.05
2022-12-15T06:08:47.398Z,31.10
2022-12-15T06:11:19.363Z,36.70
2022-12-15T06:13:46.974Z,31.15
2022-12-15T06:16:22.180Z,36.58
2022-12-15T06:18:59.000Z,35.15
2022-12-15T06:21:32.318Z,39.95
2022-12-15T06:23:59.233Z,32.00
2022-12-15T06:26:30.700Z,26.85
2022-12-15T06:28:59.552Z,36.15
2022-12-15T06:31:26.784Z,30.50
2022-12-15T06:34:01.262Z,31.92
2022-12-15T06:36:29.004Z,31.00
2022-12-15T06:38:59.411Z,40.22
2022-12-15T06:41:26.804Z,37.05
2022-12-15T06:43:58.056Z,39.03
2022-12-15T06:46:26.697Z,37.45
2022-12-15T06:48:53.950Z,29.58
2022-12-15T06:51:20.767Z,36.38
2022-12-15T06:53:54.277Z,37.72
2022-12-15T06:56:27.210Z,41.42
2022-12-15T06:58:59.768Z,35.47
2022-12-15T07:01:26.886Z,33.47
2022-12-15T07:03:54.984Z,44.55
2022-12-15T07:06:22.746Z,41.95
2022-12-15T07:08:52.668Z,40.75
2022-12-15T07:11:21.503Z,36.58
2022-12-15T07:13:52.865Z,37.05
2022-12-15T07:16:21.409Z,35.10
2022-12-15T07:18:48.640Z,35.15
2022-12-15T07:21:15.673Z,37.47
2022-12-15T07:23:58.585Z,39.33
2022-12-15T07:26:26.006Z,44.95
2022-12-15T07:28:54.024Z,39.78
2022-12-15T07:31:21.504Z,42.25
2022-12-15T07:33:48.605Z,35.60
2022-12-15T07:36:15.953Z,43.00
2022-12-15T07:38:45.555Z,42.10
2022-12-15T07:41:18.218Z,41.67
2022-12-15T07:43:46.082Z,37.90
2022-12-15T07:46:14.158Z,46.53
2022-12-15T07:48:41.159Z,35.85
2022-12-15T07:51:15.194Z,48.45
2022-12-15T07:53:46.675Z,34.72
2022-12-15T07:56:13.685Z,42.28
2022-12-15T07:58:40.476Z,44.75
2022-12-15T08:01:10.657Z,43.28
2022-12-15T08:03:39.424Z,42.33
2022-12-15T08:06:11.790Z,40.80
2022-12-15T08:08:39.444Z,40.95
2022-12-15T08:11:11.799Z,41.63
2022-12-15T08:16:26.450Z,42.95
2022-12-15T08:18:53.803Z,38.08
2022-12-15T08:21:20.741Z,48.67
2022-12-15T08:23:48.071Z,41.03
2022-12-15T08:26:17.981Z,38.67
2022-12-15T08:28:45.994Z,37.63
2022-12-15T08:31:19.636Z,44.50
2022-12-15T08:33:47.459Z,45.40
2022-12-15T08:36:17.036Z,42.42
2022-12-15T08:38:44.860Z,47.90
2022-12-15T08:41:19.712Z,46.53
2022-12-15T08:43:49.203Z,42.78
2022-12-15T08:46:18.271Z,39.53
2022-12-15T08:48:45.959Z,44.60
2022-12-15T08:51:12.816Z,40.88
2022-12-15T08:53:39.643Z,47.58
2022-12-15T08:56:12.325Z,40.17
2022-12-15T08:58:39.944Z,46.08
2022-12-15T09:01:09.688Z,38.30
2022-12-15T09:03:37.090Z,35.70
2022-12-15T09:06:05.479Z,43.28
2022-12-15T09:08:32.877Z,39.60
2022-12-15T09:11:00.697Z,36.58
2022-12-15T09:13:28.741Z,38.17
2022-12-15T09:16:10.242Z,42.63
2022-12-15T09:18:38.018Z,34.47
2022-12-15T09:21:07.333Z,33.22
2022-12-15T09:23:36.601Z,33.88
2022-12-15T09:26:14.385Z,38.55
2022-12-15T09:28:43.024Z,38.22
2022-12-15T09:31:30.961Z,39.03
2022-12-15T09:33:59.439Z,38.20
2022-12-15T09:36:30.040Z,43.30
2022-12-15T09:38:56.943Z,37.03
2022-12-15T09:41:27.301Z,38.50
2022-12-15T09:44:18.650Z,40.55
2022-12-15T09:47:09.130Z,39.40
2022-12-15T09:49:54.639Z,40.47
2022-12-15T09:52:27.069Z,30.58
2022-12-15T09:54:54.221Z,33.55
2022-12-15T09:57:35.590Z,32.00
2022-12-15T10:00:37.051Z,38.90
2022-12-15T10:03:16.871Z,34.22
2022-12-15T10:08:54.030Z,37.25
2022-12-15T10:11:20.794Z,41.10
2022-12-15T10:13:53.533Z,36.72
2022-12-15T10:16:39.108Z,38.90
2022-12-15T10:19:13.645Z,47.83
2022-12-15T10:21:41.131Z,40.72
2022-12-15T10:24:44.429Z,45.83
2022-12-15T10:27:24.975Z,45.42
2022-12-15T10:30:00.564Z,52.95
2022-12-15T10:32:40.973Z,48.45
2022-12-15T10:35:27.963Z,45.45
2022-12-15T10:38:00.204Z,54.20
2022-12-15T10:43:41.182Z,47.47
2022-12-15T10:46:13.916Z,56.17
2022-12-15T10:48:48.648Z,47.80
2022-12-15T10:51:25.083Z,49.45
2022-12-15T10:54:03.403Z,54.42
2022-12-15T10:56:33.910Z,48.30
2022-12-15T10:59:21.195Z,50.28
2022-12-15T11:01:48.215Z,51.88
2022-12-15T11:04:35.908Z,47.60
2022-12-15T11:07:04.035Z,48.83
2022-12-15T11:09:36.241Z,39.40
2022-12-15T11:12:39.256Z,42.45
2022-12-15T11:15:26.328Z,55.65
2022-12-15T11:18:04.281Z,48.35
2022-12-15T11:20:37.358Z,41.17
2022-12-15T11:23:07.564Z,47.80
2022-12-15T11:25:44.056Z,49.20
2022-12-15T11:28:20.717Z,46.13
2022-12-15T11:30:57.181Z,55.88
2022-12-15T11:33:24.517Z,52.35
2022-12-15T11:36:20.757Z,47.72
2022-12-15T11:38:59.122Z,56.15
2022-12-15T11:42:16.604Z,49.58
2022-12-15T11:45:28.244Z,55.67
2022-12-15T11:48:32.993Z,48.95
2022-12-15T11:51:21.149Z,58.63
2022-12-15T11:54:00.179Z,55.55
2022-12-15T11:56:39.354Z,48.70
2022-12-15T12:02:34.878Z,47.00
2022-12-15T12:05:37.876Z,61.47
2022-12-15T12:08:13.587Z,46.92
2022-12-15T12:10:45.828Z,54.42
2022-12-15T12:13:47.525Z,50.35
2022-12-15T12:16:32.610Z,51.47
2022-12-15T12:19:06.445Z,51.85
2022-12-15T12:21:42.901Z,55.35
2022-12-15T12:24:26.519Z,47.25
2022-12-15T12:27:10.267Z,59.58
2022-12-15T12:29:51.337Z,54.65
2022-12-15T12:32:50.377Z,63.38
2022-12-15T12:35:48.786Z,50.85
2022-12-15T12:38:26.827Z,51.30
2022-12-15T12:41:07.926Z,51.83
2022-12-15T12:43:38.348Z,51.88
2022-12-15T12:46:32.218Z,51.22
2022-12-15T12:49:06.456Z,42.38
2022-12-15T12:51:42.506Z,49.03
2022-12-15T12:54:31.246Z,51.53
2022-12-15T12:56:58.587Z,40.85
2022-12-15T12:59:33.991Z,49.85
2022-12-15T13:02:24.664Z,54.08
2022-12-15T13:05:00.631Z,48.70
2022-12-15T13:07:36.379Z,47.55
2022-12-15T13:10:09.251Z,42.40
2022-12-15T13:13:00.834Z,48.33
2022-12-15T13:15:27.682Z,44.70
2022-12-15T13:18:04.674Z,40.25
2022-12-15T13:20:34.923Z,33.05
2022-12-15T13:23:17.515Z,34.97
2022-12-15T13:25:51.754Z,38.53
2022-12-15T13:28:44.084Z,37.90
2022-12-15T13:31:16.917Z,42.45
2022-12-15T13:33:50.216Z,39.28
2022-12-15T13:36:42.122Z,41.78
2022-12-15T13:39:14.552Z,44.92
2022-12-15T13:42:15.214Z,37.45
2022-12-15T13:44:44.175Z,35.92
2022-12-15T13:47:31.112Z,39.08
2022-12-15T13:50:15.331Z,39.42
2022-12-15T13:55:38.050Z,39.47
2022-12-15T13:58:07.875Z,39.22
2022-12-15T14:00:38.255Z,33.42
2022-12-15T14:03:12.431Z,40.83
2022-12-15T14:05:42.965Z,46.97
2022-12-15T14:08:15.692Z,43.45
2022-12-15T14:11:50.755Z,40.60
2022-12-15T14:14:23.380Z,46.65
2022-12-15T14:16:57.862Z,43.70
2022-12-15T14:19:25.895Z,40.67
2022-12-15T14:21:57.634Z,43.03
2022-12-15T14:24:40.178Z,37.00
2022-12-15T14:27:07.356Z,47.83
2022-12-15T14:29:34.512Z,45.80
2022-12-15T14:32:01.975Z,48.78
2022-12-15T14:34:36.934Z,42.63
2022-12-15T14:37:08.243Z,37.55
2022-12-15T14:39:50.119Z,39.65
2022-12-15T14:42:26.631Z,48.53
2022-12-15T14:44:57.793Z,42.90
2022-12-15T14:47:31.897Z,42.88
2022-12-15T14:50:01.420Z,39.13
2022-12-15T14:52:41.531Z,45.38
2022-12-15T14:55:31.840Z,37.95
2022-12-15T14:57:59.144Z,37.75
2022-12-15T15:00:33.747Z,44.22
2022-12-15T15:03:10.012Z,46.70
2022-12-15T15:03:11.638Z,34.83
2022-12-15T15:03:18.924Z,45.55
2022-12-15T15:05:55.590Z,51.00
2022-12-15T15:08:52.794Z,54.38
2022-12-15T15:11:31.169Z,53.13
2022-12-15T15:14:06.104Z,60.05
2022-12-15T15:16:33.072Z,42.15
2022-12-15T15:19:02.513Z,53.47
2022-12-15T15:21:34.020Z,55.10
2022-12-15T15:24:22.498Z,48.03
2022-12-15T15:26:49.427Z,43.05
2022-12-15T15:29:40.954Z,49.33
2022-12-15T15:32:20.581Z,50.75
2022-12-15T15:34:48.140Z,54.53
2022-12-15T15:37:24.165Z,49.50
2022-12-15T15:39:53.032Z,54.10
2022-12-15T15:42:19.889Z,44.63
2022-12-15T15:44:46.902Z,49.25
2022-12-15T15:47:25.257Z,57.55
2022-12-15T15:49:55.104Z,51.85
2022-12-15T15:52:22.863Z,48.42
2022-12-15T15:54:50.368Z,53.75
2022-12-15T15:57:18.603Z,48.75
2022-12-15T15:59:46.691Z,57.17
2022-12-15T16:02:14.864Z,48.08
2022-12-15T16:04:43.490Z,59.08
2022-12-15T16:07:22.501Z,62.20
2022-12-15T16:09:49.765Z,50.55
2022-12-15T16:12:38.813Z,42.58
2022-12-15T16:15:25.970Z,49.28
2022-12-15T16:17:53.802Z,55.60
2022-12-15T16:20:23.349Z,44.67
2022-12-15T16:23:07.571Z,49.17
2022-12-15T16:25:50.497Z,45.22
2022-12-15T16:28:23.645Z,37.38
2022-12-15T16:30:51.329Z,52.67
2022-12-15T16:33:18.509Z,47.90
2022-12-15T16:35:48.237Z,44.75
2022-12-15T16:38:28.892Z,45.05
2022-12-15T16:40:57.117Z,41.33
2022-12-15T16:43:28.979Z,44.13
2022-12-15T16:45:57.101Z,47.67
2022-12-15T16:48:24.061Z,45.20
2022-12-15T16:50:53.591Z,53.20
2022-12-15T16:53:23.572Z,50.63
2022-12-15T16:55:55.533Z,51.50
2022-12-15T16:58:23.653Z,50.83
2022-12-15T17:00:50.958Z,56.45
2022-12-15T17:03:20.247Z,51.42
2022-12-15T17:05:51.997Z,44.50
2022-12-15T17:08:23.689Z,54.67
2022-12-15T17:10:51.012Z,54.38
2022-12-15T17:13:20.665Z,50.95
2022-12-15T17:15:47.846Z,46.50
2022-12-15T17:18:15.081Z,47.80
2022-12-15T17:20:43.117Z,44.53
2022-12-15T17:23:17.081Z,40.28
2022-12-15T17:26:18.579Z,50.15
2022-12-15T17:28:39.106Z,42.92
2022-12-15T17:31:06.179Z,49.00
2022-12-15T17:33:35.717Z,41.08
2022-12-15T17:36:12.816Z,47.15
2022-12-15T17:38:40.642Z,46.67
2022-12-15T17:41:28.765Z,48.25
2022-12-15T17:44:24.013Z,43.08
2022-12-15T17:46:45.643Z,47.83
2022-12-15T17:49:13.303Z,45.83
2022-12-15T17:51:40.590Z,54.60
2022-12-15T17:54:12.639Z,52.45
2022-12-15T17:56:39.706Z,38.67
2022-12-15T17:59:13.792Z,44.90
2022-12-15T18:01:42.442Z,46.67
2022-12-15T18:04:10.824Z,46.38
2022-12-15T18:06:39.147Z,48.30
2022-12-15T18:09:19.777Z,49.70
2022-12-15T18:11:46.932Z,39.13
2022-12-15T18:14:19.794Z,41.67
2022-12-15T18:16:46.941Z,44.33
2022-12-15T18:19:14.037Z,34.33
2022-12-15T18:21:41.193Z,40.70
2022-12-15T18:24:17.081Z,37.88
2022-12-15T18:26:44.095Z,42.35
2022-12-15T18:29:17.986Z,38.65
2022-12-15T18:31:47.028Z,50.30
2022-12-15T18:34:19.322Z,39.92
2022-12-15T18:36:46.282Z,36.03
2022-12-15T18:39:19.227Z,35.55
2022-12-15T18:41:46.655Z,41.20
2022-12-15T18:44:24.671Z,35.95
2022-12-15T18:46:51.985Z,37.38
2022-12-15T18:49:19.458Z,34.92
2022-12-15T18:51:47.686Z,34.67
2022-12-15T18:54:21.188Z,35.83
2022-12-15T18:56:48.698Z,35.17
2022-12-15T18:59:17.305Z,35.88
2022-12-15T19:01:45.845Z,34.53
2022-12-15T19:04:13.344Z,37.03
2022-12-15T19:06:41.060Z,27.65
2022-12-15T19:09:21.774Z,43.83
2022-12-15T19:12:17.852Z,37.35
2022-12-15T19:14:52.001Z,35.65
2022-12-15T19:17:39.223Z,33.53
2022-12-15T19:20:36.368Z,36.05
2022-12-15T19:23:03.755Z,41.63
2022-12-15T19:25:31.334Z,36.80
2022-12-15T19:27:59.983Z,38.90
2022-12-15T19:30:41.750Z,34.75
2022-12-15T19:33:10.138Z,35.67
2022-12-15T19:35:38.187Z,33.25
2022-12-15T19:38:06.274Z,29.75
2022-12-15T19:40:35.214Z,41.50
2022-12-15T19:43:03.295Z,43.28
2022-12-15T19:45:32.127Z,35.42
2022-12-15T19:48:00.045Z,30.25
2022-12-15T19:50:36.963Z,34.60
2022-12-15T19:53:12.789Z,30.23
2022-12-15T19:55:39.847Z,36.85
2022-12-15T19:58:27.783Z,29.83
2022-12-15T20:00:57.182Z,30.85
2022-12-15T20:03:25.287Z,39.03
2022-12-15T20:05:54.210Z,35.03
2022-12-15T20:08:27.392Z,27.15
2022-12-15T20:10:56.291Z,33.15
2022-12-15T20:13:23.555Z,35.88
2022-12-15T20:15:50.370Z,32.03
2022-12-15T20:18:17.188Z,39.38
2022-12-15T20:20:46.414Z,32.00
2022-12-15T20:23:23.748Z,37.65
2022-12-15T20:25:50.711Z,30.45
2022-12-15T20:28:24.471Z,32.33
2022-12-15T20:30:51.975Z,29.00
2022-12-15T20:33:20.689Z,30.77
2022-12-15T20:35:49.164Z,34.90
2022-12-15T20:38:28.094Z,33.38
2022-12-15T20:40:56.122Z,35.15
2022-12-15T20:43:24.969Z,41.63
2022-12-15T20:46:19.012Z,30.05
2022-12-15T20:48:46.039Z,34.17
2022-12-15T20:51:33.433Z,29.88
2022-12-15T20:54:02.235Z,30.92
2022-12-15T20:56:29.281Z,30.80
2022-12-15T20:58:58.163Z,26.23
2022-12-15T21:01:32.324Z,30.38
2022-12-15T21:04:01.492Z,32.88
2022-12-15T21:06:29.073Z,38.88
2022-12-15T21:08:56.848Z,33.05
2022-12-15T21:11:28.540Z,34.67
2022-12-15T21:13:58.930Z,39.05
2022-12-15T21:16:29.136Z,37.63
2022-12-15T21:19:20.174Z,42.08
2022-12-15T21:21:49.006Z,47.00
2022-12-15T21:24:27.520Z,32.67
2022-12-15T21:26:55.121Z,26.20
2022-12-15T21:29:24.574Z,39.08
2022-12-15T21:31:51.513Z,27.48
2022-12-15T21:34:18.319Z,38.22
2022-12-15T21:36:49.291Z,33.22
2022-12-15T21:39:23.466Z,33.67
2022-12-15T21:41:50.407Z,33.58
2022-12-15T21:44:18.395Z,37.95
2022-12-15T21:46:45.543Z,33.95
2022-12-15T21:49:20.563Z,38.85
2022-12-15T21:51:55.447Z,30.95
2022-12-15T21:54:30.480Z,35.90
2022-12-15T21:57:01.824Z,42.22
2022-12-15T21:59:31.194Z,40.00
2022-12-15T22:01:59.379Z,33.20
2022-12-15T22:04:33.803Z,32.15
2022-12-15T22:07:00.991Z,42.40
2022-12-15T22:09:27.836Z,36.28
2022-12-15T22:11:56.587Z,32.95
2022-12-15T22:14:34.341Z,37.42
2022-12-15T22:17:11.735Z,35.00
2022-12-15T22:19:38.516Z,41.08
2022-12-15T22:22:05.288Z,32.28
2022-12-15T22:24:32.285Z,40.90
2022-12-15T22:26:59.126Z,39.20
2022-12-15T22:29:27.174Z,37.00
2022-12-15T22:34:41.050Z,37.30
2022-12-15T22:37:07.944Z,34.00
2022-12-15T22:39:35.031Z,39.13
2022-12-15T22:42:04.086Z,35.65
2022-12-15T22:44:34.823Z,38.25
2022-12-15T22:47:03.525Z,43.00
2022-12-15T22:49:38.117Z,45.45
2022-12-15T22:52:17.294Z,38.85
2022-12-15T22:54:46.028Z,45.40
2022-12-15T22:57:29.383Z,47.28
2022-12-15T23:00:02.791Z,50.90
2022-12-15T23:02:33.677Z,49.97
2022-12-15T23:05:01.090Z,58.70
2022-12-15T23:07:28.316Z,48.42
2022-12-15T23:10:15.181Z,52.78
2022-12-15T23:12:42.080Z,55.38
2022-12-15T23:15:27.940Z,55.35
2022-12-15T23:17:55.067Z,61.95
2022-12-15T23:20:22.056Z,63.75
2022-12-15T23:22:48.864Z,60.25
2022-12-15T23:25:16.227Z,74.13
2022-12-15T23:27:43.240Z,66.30
2022-12-15T23:30:12.712Z,62.63
2022-12-15T23:32:39.545Z,63.63
2022-12-15T23:35:06.768Z,60.33
2022-12-15T23:37:35.140Z,55.40
2022-12-15T23:40:02.133Z,69.72
2022-12-15T23:42:28.945Z,62.85
2022-12-15T23:44:55.770Z,51.28
2022-12-15T23:47:22.659Z,51.25
2022-12-15T23:49:49.760Z,59.05
2022-12-15T23:52:20.256Z,55.80
2022-12-15T23:54:47.013Z,57.28
2022-12-15T23:57:13.812Z,54.75
2022-12-15T23:59:40.636Z,57.28
